createdAt,value
2023-03-08T00:00:08.548Z,4.50
2023-03-08T00:00:21.127Z,4.50
2023-03-08T00:00:32.893Z,4.50
2023-03-08T00:00:44.675Z,4.50
2023-03-08T00:00:56.569Z,4.50
2023-03-08T00:01:15.203Z,4.50
2023-03-08T00:01:26.914Z,4.40
2023-03-08T00:01:38.634Z,4.50
2023-03-08T00:01:50.399Z,4.50
2023-03-08T00:02:02.209Z,4.50
2023-03-08T00:02:13.903Z,4.50
2023-03-08T00:02:25.619Z,4.50
2023-03-08T00:02:37.400Z,4.50
2023-03-08T00:02:49.143Z,4.50
2023-03-08T00:03:01.122Z,4.50
2023-03-08T00:03:14.503Z,4.50
2023-03-08T00:03:26.917Z,4.50
2023-03-08T00:03:38.925Z,4.50
2023-03-08T00:03:54.536Z,4.50
2023-03-08T00:04:06.407Z,4.50
2023-03-08T00:04:18.342Z,4.50
2023-03-08T00:04:30.117Z,4.40
2023-03-08T00:04:41.948Z,4.40
2023-03-08T00:04:56.981Z,4.40
2023-03-08T00:05:09.619Z,4.40
2023-03-08T00:05:21.563Z,4.50
2023-03-08T00:05:33.395Z,4.40
2023-03-08T00:05:45.169Z,4.50
2023-03-08T00:05:56.963Z,4.40
2023-03-08T00:06:09.756Z,4.40
2023-03-08T00:06:21.948Z,4.40
2023-03-08T00:06:33.753Z,4.40
2023-03-08T00:06:45.468Z,4.40
2023-03-08T00:06:57.256Z,4.40
2023-03-08T00:07:09.198Z,4.40
2023-03-08T00:07:21.286Z,4.40
2023-03-08T00:07:33.408Z,4.40
2023-03-08T00:07:45.229Z,4.40
2023-03-08T00:07:57.013Z,4.40
2023-03-08T00:08:08.789Z,4.40
2023-03-08T00:08:20.535Z,4.40
2023-03-08T00:08:32.290Z,4.40
2023-03-08T00:08:44.157Z,4.40
2023-03-08T00:08:57.754Z,4.40
2023-03-08T00:09:10.027Z,4.40
2023-03-08T00:09:21.804Z,4.40
2023-03-08T00:09:33.771Z,4.40
2023-03-08T00:09:45.669Z,4.40
2023-03-08T00:09:57.364Z,4.40
2023-03-08T00:10:10.224Z,4.40
2023-03-08T00:10:22.470Z,4.40
2023-03-08T00:10:34.291Z,4.40
2023-03-08T00:10:46.108Z,4.40
2023-03-08T00:10:58.025Z,4.40
2023-03-08T00:11:11.386Z,4.40
2023-03-08T00:11:23.173Z,4.40
2023-03-08T00:11:35.214Z,4.40
2023-03-08T00:11:47.003Z,4.40
2023-03-08T00:11:58.789Z,4.40
2023-03-08T00:12:10.697Z,4.40
2023-03-08T00:12:22.852Z,4.40
2023-03-08T00:12:34.545Z,4.40
2023-03-08T00:12:46.312Z,4.40
2023-03-08T00:12:58.123Z,4.40
2023-03-08T00:13:10.005Z,4.40
2023-03-08T00:13:21.695Z,4.40
2023-03-08T00:13:33.619Z,4.40
2023-03-08T00:13:45.399Z,4.40
2023-03-08T00:13:57.298Z,4.40
2023-03-08T00:14:09.060Z,4.40
2023-03-08T00:14:22.355Z,4.40
2023-03-08T00:14:34.197Z,4.40
2023-03-08T00:14:46.208Z,4.30
2023-03-08T00:14:58.030Z,4.30
2023-03-08T00:15:10.076Z,4.40
2023-03-08T00:15:22.340Z,4.30
2023-03-08T00:15:39.387Z,4.30
2023-03-08T00:15:52.316Z,4.30
2023-03-08T00:16:05.643Z,4.30
2023-03-08T00:16:17.564Z,4.30
2023-03-08T00:16:29.478Z,4.30
2023-03-08T00:16:41.189Z,4.30
2023-03-08T00:16:52.973Z,4.30
2023-03-08T00:17:05.061Z,4.30
2023-03-08T00:17:17.542Z,4.30
2023-03-08T00:17:29.329Z,4.30
2023-03-08T00:17:41.057Z,4.30
2023-03-08T00:17:52.972Z,4.30
2023-03-08T00:18:07.682Z,4.30
2023-03-08T00:18:19.400Z,4.30
2023-03-08T00:18:31.296Z,4.30
2023-03-08T00:18:43.130Z,4.30
2023-03-08T00:18:54.953Z,4.30
2023-03-08T00:19:06.728Z,4.30
2023-03-08T00:19:18.453Z,4.30
2023-03-08T00:19:30.564Z,4.30
2023-03-08T00:19:42.402Z,4.30
2023-03-08T00:19:54.155Z,4.30
2023-03-08T00:20:06.942Z,4.30
2023-03-08T00:20:18.758Z,4.30
2023-03-08T00:20:30.580Z,4.30
2023-03-08T00:20:42.776Z,4.30
2023-03-08T00:21:11.121Z,4.30
2023-03-08T00:21:23.016Z,4.30
2023-03-08T00:21:34.896Z,4.30
2023-03-08T00:21:46.626Z,4.30
2023-03-08T00:21:58.361Z,4.30
2023-03-08T00:22:10.870Z,4.30
2023-03-08T00:22:22.669Z,4.30
2023-03-08T00:22:37.897Z,4.30
2023-03-08T00:22:49.840Z,4.30
2023-03-08T00:23:01.609Z,4.30
2023-03-08T00:23:13.569Z,4.30
2023-03-08T00:23:25.377Z,4.30
2023-03-08T00:23:37.119Z,4.30
2023-03-08T00:23:51.936Z,4.30
2023-03-08T00:24:03.815Z,4.40
2023-03-08T00:24:16.867Z,4.30
2023-03-08T00:24:28.635Z,4.40
2023-03-08T00:24:40.568Z,4.40
2023-03-08T00:24:53.259Z,4.40
2023-03-08T00:25:05.633Z,4.30
2023-03-08T00:25:17.576Z,4.30
2023-03-08T00:25:30.314Z,4.40
2023-03-08T00:25:42.256Z,4.40
2023-03-08T00:25:54.265Z,4.40
2023-03-08T00:26:06.372Z,4.30
2023-03-08T00:26:18.272Z,4.40
2023-03-08T00:26:29.989Z,4.40
2023-03-08T00:26:41.705Z,4.40
2023-03-08T00:26:53.570Z,4.40
2023-03-08T00:27:05.417Z,4.40
2023-03-08T00:27:17.111Z,4.40
2023-03-08T00:27:29.012Z,4.40
2023-03-08T00:27:40.790Z,4.40
2023-03-08T00:27:52.572Z,4.40
2023-03-08T00:28:04.439Z,4.40
2023-03-08T00:28:16.148Z,4.40
2023-03-08T00:28:27.903Z,4.40
2023-03-08T00:28:39.805Z,4.40
2023-03-08T00:28:52.693Z,4.40
2023-03-08T00:29:04.489Z,4.40
2023-03-08T00:29:16.365Z,4.40
2023-03-08T00:29:28.094Z,4.40
2023-03-08T00:29:39.903Z,4.40
2023-03-08T00:29:51.610Z,4.40
2023-03-08T00:30:05.982Z,4.40
2023-03-08T00:30:17.793Z,4.40
2023-03-08T00:30:29.606Z,4.40
2023-03-08T00:30:41.442Z,4.40
2023-03-08T00:31:00.225Z,4.40
2023-03-08T00:31:12.632Z,4.40
2023-03-08T00:31:24.589Z,4.40
2023-03-08T00:31:36.380Z,4.40
2023-03-08T00:31:48.316Z,4.40
2023-03-08T00:32:00.179Z,4.40
2023-03-08T00:32:12.101Z,4.40
2023-03-08T00:32:26.889Z,4.40
2023-03-08T00:32:38.740Z,4.40
2023-03-08T00:32:50.588Z,4.40
2023-03-08T00:33:02.386Z,4.40
2023-03-08T00:33:14.286Z,4.40
2023-03-08T00:33:26.125Z,4.40
2023-03-08T00:33:38.064Z,4.40
2023-03-08T00:33:54.137Z,4.30
2023-03-08T00:34:05.878Z,4.30
2023-03-08T00:34:17.585Z,4.30
2023-03-08T00:34:29.338Z,4.30
2023-03-08T00:34:46.237Z,4.30
2023-03-08T00:34:58.012Z,4.30
2023-03-08T00:35:09.774Z,4.30
2023-03-08T00:35:21.616Z,4.30
2023-03-08T00:35:33.390Z,4.30
2023-03-08T00:35:45.210Z,4.30
2023-03-08T00:36:03.685Z,4.30
2023-03-08T00:36:18.615Z,4.30
2023-03-08T00:36:30.330Z,4.30
2023-03-08T00:36:42.170Z,4.30
2023-03-08T00:36:53.964Z,4.30
2023-03-08T00:37:05.952Z,4.30
2023-03-08T00:37:17.706Z,4.30
2023-03-08T00:37:29.431Z,4.30
2023-03-08T00:37:41.301Z,4.30
2023-03-08T00:37:53.100Z,4.30
2023-03-08T00:38:05.103Z,4.30
2023-03-08T00:38:16.992Z,4.30
2023-03-08T00:38:29.417Z,4.20
2023-03-08T00:38:41.270Z,4.20
2023-03-08T00:38:53.059Z,4.30
2023-03-08T00:39:05.003Z,4.20
2023-03-08T00:39:16.787Z,4.20
2023-03-08T00:39:28.472Z,4.30
2023-03-08T00:39:40.213Z,4.30
2023-03-08T00:39:52.478Z,4.30
2023-03-08T00:40:05.771Z,4.30
2023-03-08T00:40:17.811Z,4.30
2023-03-08T00:40:29.621Z,4.30
2023-03-08T00:40:41.380Z,4.30
2023-03-08T00:40:53.334Z,4.20
2023-03-08T00:41:05.275Z,4.20
2023-03-08T00:41:17.445Z,4.30
2023-03-08T00:41:29.398Z,4.20
2023-03-08T00:41:41.276Z,4.20
2023-03-08T00:41:53.211Z,4.30
2023-03-08T00:42:05.036Z,4.20
2023-03-08T00:42:16.969Z,4.20
2023-03-08T00:42:28.779Z,4.30
2023-03-08T00:42:40.492Z,4.20
2023-03-08T00:42:52.254Z,4.30
2023-03-08T00:43:03.970Z,4.20
2023-03-08T00:43:15.782Z,4.30
2023-03-08T00:43:27.783Z,4.30
2023-03-08T00:43:41.193Z,4.30
2023-03-08T00:43:52.946Z,4.20
2023-03-08T00:44:04.739Z,4.20
2023-03-08T00:44:16.507Z,4.20
2023-03-08T00:44:28.218Z,4.20
2023-03-08T00:44:39.944Z,4.20
2023-03-08T00:44:51.807Z,4.20
2023-03-08T00:45:03.690Z,4.20
2023-03-08T00:45:15.584Z,4.20
2023-03-08T00:45:27.334Z,4.20
2023-03-08T00:45:39.127Z,4.20
2023-03-08T00:45:53.132Z,4.20
2023-03-08T00:46:05.847Z,4.20
2023-03-08T00:46:17.577Z,4.20
2023-03-08T00:46:29.491Z,4.20
2023-03-08T00:46:41.268Z,4.20
2023-03-08T00:46:53.014Z,4.10
2023-03-08T00:47:04.880Z,4.10
2023-03-08T00:47:16.915Z,4.10
2023-03-08T00:47:28.670Z,4.10
2023-03-08T00:47:40.444Z,4.10
2023-03-08T00:47:52.143Z,4.10
2023-03-08T00:48:03.966Z,4.20
2023-03-08T00:48:15.808Z,4.10
2023-03-08T00:48:27.714Z,4.10
2023-03-08T00:48:39.503Z,4.10
2023-03-08T00:48:51.309Z,4.10
2023-03-08T00:49:04.336Z,4.10
2023-03-08T00:49:16.089Z,4.10
2023-03-08T00:49:27.923Z,4.10
2023-03-08T00:49:39.731Z,4.10
2023-03-08T00:49:51.606Z,4.10
2023-03-08T00:50:03.773Z,4.10
2023-03-08T00:50:15.716Z,4.10
2023-03-08T00:50:27.514Z,4.10
2023-03-08T00:50:39.276Z,4.10
2023-03-08T00:50:51.331Z,4.10
2023-03-08T00:51:03.432Z,4.10
2023-03-08T00:51:15.684Z,4.10
2023-03-08T00:51:27.463Z,4.10
2023-03-08T00:51:39.228Z,4.10
2023-03-08T00:51:50.953Z,4.10
2023-03-08T00:52:02.751Z,4.10
2023-03-08T00:52:14.604Z,4.10
2023-03-08T00:52:26.342Z,4.10
2023-03-08T00:52:38.048Z,4.10
2023-03-08T00:52:49.854Z,4.10
2023-03-08T00:53:01.576Z,4.10
2023-03-08T00:53:13.300Z,4.10
2023-03-08T00:53:25.087Z,4.10
2023-03-08T00:53:36.857Z,4.10
2023-03-08T00:53:48.718Z,4.10
2023-03-08T00:54:00.531Z,4.10
2023-03-08T00:54:12.331Z,4.10
2023-03-08T00:54:24.110Z,4.10
2023-03-08T00:54:35.921Z,4.10
2023-03-08T00:54:47.742Z,4.10
2023-03-08T00:54:59.500Z,4.10
2023-03-08T00:55:11.259Z,4.10
2023-03-08T00:55:23.007Z,4.10
2023-03-08T00:55:35.181Z,4.10
2023-03-08T00:55:50.792Z,4.10
2023-03-08T00:56:02.560Z,4.10
2023-03-08T00:56:14.352Z,4.10
2023-03-08T00:56:26.197Z,4.10
2023-03-08T00:56:37.946Z,4.10
2023-03-08T00:56:49.647Z,4.10
2023-03-08T00:57:01.358Z,4.10
2023-03-08T00:57:13.124Z,4.10
2023-03-08T00:57:24.907Z,4.10
2023-03-08T00:57:36.699Z,4.10
2023-03-08T00:57:48.378Z,4.10
2023-03-08T00:58:00.201Z,4.10
2023-03-08T00:58:11.951Z,4.00
2023-03-08T00:58:24.856Z,4.10
2023-03-08T00:58:37.136Z,4.10
2023-03-08T00:58:48.913Z,4.10
2023-03-08T00:59:00.693Z,4.10
2023-03-08T00:59:12.424Z,4.10
2023-03-08T00:59:24.202Z,4.10
2023-03-08T00:59:36.123Z,4.00
2023-03-08T00:59:47.970Z,4.00
2023-03-08T00:59:59.667Z,4.00
2023-03-08T01:00:13.115Z,4.00
2023-03-08T01:00:25.284Z,4.00
2023-03-08T01:00:37.086Z,4.00
2023-03-08T01:00:48.949Z,4.10
2023-03-08T01:01:00.869Z,4.00
2023-03-08T01:01:15.278Z,4.10
2023-03-08T01:01:27.101Z,4.10
2023-03-08T01:01:38.914Z,4.10
2023-03-08T01:01:50.645Z,4.00
2023-03-08T01:02:02.461Z,4.10
2023-03-08T01:02:14.216Z,4.00
2023-03-08T01:02:26.006Z,4.00
2023-03-08T01:02:41.197Z,4.00
2023-03-08T01:02:53.245Z,4.00
2023-03-08T01:03:05.010Z,4.00
2023-03-08T01:03:17.279Z,4.00
2023-03-08T01:03:29.129Z,4.00
2023-03-08T01:03:40.878Z,4.00
2023-03-08T01:03:52.725Z,4.00
2023-03-08T01:04:04.633Z,4.00
2023-03-08T01:04:16.398Z,4.00
2023-03-08T01:04:28.242Z,4.00
2023-03-08T01:04:39.979Z,4.00
2023-03-08T01:04:51.685Z,4.00
2023-03-08T01:05:03.931Z,4.00
2023-03-08T01:05:15.735Z,4.00
2023-03-08T01:05:27.647Z,4.00
2023-03-08T01:05:40.730Z,4.00
2023-03-08T01:05:54.040Z,4.00
2023-03-08T01:06:07.894Z,4.00
2023-03-08T01:06:19.623Z,4.00
2023-03-08T01:06:31.415Z,4.00
2023-03-08T01:06:43.349Z,4.00
2023-03-08T01:06:55.070Z,4.00
2023-03-08T01:07:06.834Z,4.00
2023-03-08T01:07:19.370Z,4.00
2023-03-08T01:07:31.117Z,4.00
2023-03-08T01:07:42.952Z,4.00
2023-03-08T01:07:55.164Z,4.00
2023-03-08T01:08:07.064Z,4.00
2023-03-08T01:08:18.920Z,4.00
2023-03-08T01:08:30.830Z,4.00
2023-03-08T01:08:42.734Z,4.00
2023-03-08T01:08:54.501Z,4.00
2023-03-08T01:09:06.234Z,4.00
2023-03-08T01:09:18.025Z,4.00
2023-03-08T01:09:29.755Z,4.00
2023-03-08T01:09:41.509Z,4.00
2023-03-08T01:09:55.802Z,4.00
2023-03-08T01:10:07.963Z,4.00
2023-03-08T01:10:19.794Z,4.00
2023-03-08T01:10:31.536Z,4.00
2023-03-08T01:10:52.936Z,4.00
2023-03-08T01:11:05.259Z,4.00
2023-03-08T01:11:22.164Z,4.00
2023-03-08T01:11:35.842Z,4.00
2023-03-08T01:11:47.556Z,4.00
2023-03-08T01:11:59.414Z,4.00
2023-03-08T01:12:11.270Z,4.00
2023-03-08T01:12:25.251Z,4.00
2023-03-08T01:12:37.010Z,4.00
2023-03-08T01:12:48.797Z,3.90
2023-03-08T01:13:00.603Z,3.90
2023-03-08T01:13:12.579Z,3.90
2023-03-08T01:13:30.491Z,3.90
2023-03-08T01:13:42.255Z,3.90
2023-03-08T01:13:54.287Z,4.00
2023-03-08T01:14:08.064Z,3.90
2023-03-08T01:14:20.008Z,4.00
2023-03-08T01:14:31.786Z,3.90
2023-03-08T01:14:43.614Z,3.90
2023-03-08T01:14:55.392Z,3.90
2023-03-08T01:15:08.300Z,3.90
2023-03-08T01:15:20.026Z,3.90
2023-03-08T01:15:35.515Z,3.90
2023-03-08T01:15:47.330Z,3.90
2023-03-08T01:15:59.264Z,3.90
2023-03-08T01:16:36.972Z,3.90
2023-03-08T01:16:48.725Z,3.90
2023-03-08T01:17:00.392Z,3.90
2023-03-08T01:17:12.096Z,3.90
2023-03-08T01:17:23.802Z,3.90
2023-03-08T01:17:35.588Z,3.90
2023-03-08T01:17:47.377Z,3.90
2023-03-08T01:17:59.113Z,3.90
2023-03-08T01:18:11.063Z,3.90
2023-03-08T01:18:22.916Z,3.90
2023-03-08T01:18:34.661Z,3.90
2023-03-08T01:18:46.443Z,3.90
2023-03-08T01:18:58.233Z,3.90
2023-03-08T01:19:10.429Z,3.90
2023-03-08T01:19:22.188Z,3.90
2023-03-08T01:19:33.966Z,3.80
2023-03-08T01:19:45.659Z,3.90
2023-03-08T01:19:57.568Z,3.80
2023-03-08T01:20:09.938Z,3.80
2023-03-08T01:20:21.655Z,3.80
2023-03-08T01:20:33.449Z,3.80
2023-03-08T01:20:45.279Z,3.80
2023-03-08T01:21:01.485Z,3.80
2023-03-08T01:21:13.240Z,3.80
2023-03-08T01:21:25.297Z,3.80
2023-03-08T01:21:37.363Z,3.80
2023-03-08T01:21:49.129Z,3.80
2023-03-08T01:22:00.929Z,3.80
2023-03-08T01:22:12.709Z,3.80
2023-03-08T01:22:24.624Z,3.80
2023-03-08T01:22:36.496Z,3.80
2023-03-08T01:22:48.500Z,3.80
2023-03-08T01:23:00.407Z,3.80
2023-03-08T01:23:12.174Z,3.80
2023-03-08T01:23:23.861Z,3.80
2023-03-08T01:23:35.616Z,3.80
2023-03-08T01:23:48.360Z,3.80
2023-03-08T01:24:00.304Z,3.80
2023-03-08T01:24:12.225Z,3.80
2023-03-08T01:24:23.964Z,3.80
2023-03-08T01:24:36.022Z,3.80
2023-03-08T01:24:48.390Z,3.80
2023-03-08T01:25:00.177Z,3.80
2023-03-08T01:25:11.903Z,3.80
2023-03-08T01:25:23.646Z,3.80
2023-03-08T01:25:35.631Z,3.80
2023-03-08T01:25:47.310Z,3.80
2023-03-08T01:26:01.908Z,3.80
2023-03-08T01:26:15.349Z,3.80
2023-03-08T01:26:27.243Z,3.80
2023-03-08T01:26:39.014Z,3.80
2023-03-08T01:26:50.770Z,3.80
2023-03-08T01:27:02.550Z,3.80
2023-03-08T01:27:14.630Z,3.80
2023-03-08T01:27:26.306Z,3.80
2023-03-08T01:27:37.982Z,3.80
2023-03-08T01:27:49.740Z,3.80
2023-03-08T01:28:01.588Z,3.90
2023-03-08T01:28:13.376Z,3.80
2023-03-08T01:28:25.143Z,3.80
2023-03-08T01:28:36.947Z,3.90
2023-03-08T01:28:49.088Z,3.80
2023-03-08T01:29:01.381Z,3.80
2023-03-08T01:29:13.159Z,3.90
2023-03-08T01:29:25.033Z,3.90
2023-03-08T01:29:36.855Z,3.80
2023-03-08T01:29:48.568Z,3.80
2023-03-08T01:30:00.331Z,3.90
2023-03-08T01:30:12.334Z,3.90
2023-03-08T01:30:24.128Z,3.80
2023-03-08T01:30:35.889Z,3.80
2023-03-08T01:30:47.662Z,3.90
2023-03-08T01:31:06.786Z,3.80
2023-03-08T01:31:23.177Z,3.80
2023-03-08T01:31:35.008Z,3.90
2023-03-08T01:31:46.731Z,3.90
2023-03-08T01:31:58.424Z,3.90
2023-03-08T01:32:10.835Z,3.90
2023-03-08T01:32:22.633Z,3.80
2023-03-08T01:32:34.467Z,3.90
2023-03-08T01:32:46.195Z,3.90
2023-03-08T01:32:58.096Z,3.80
2023-03-08T01:33:09.860Z,3.80
2023-03-08T01:33:21.569Z,3.90
2023-03-08T01:33:33.411Z,3.90
2023-03-08T01:33:45.667Z,3.80
2023-03-08T01:33:57.589Z,3.90
2023-03-08T01:34:09.552Z,3.80
2023-03-08T01:34:21.320Z,3.80
2023-03-08T01:34:33.243Z,3.80
2023-03-08T01:34:44.996Z,3.90
2023-03-08T01:34:56.911Z,3.90
2023-03-08T01:35:09.049Z,3.90
2023-03-08T01:35:20.836Z,3.90
2023-03-08T01:35:32.630Z,3.90
2023-03-08T01:35:44.393Z,3.90
2023-03-08T01:35:56.189Z,3.90
2023-03-08T01:36:09.165Z,3.90
2023-03-08T01:36:22.598Z,3.90
2023-03-08T01:36:34.457Z,3.90
2023-03-08T01:36:46.244Z,3.90
2023-03-08T01:36:57.960Z,3.90
2023-03-08T01:37:09.729Z,3.90
2023-03-08T01:37:21.449Z,3.90
2023-03-08T01:37:34.309Z,3.90
2023-03-08T01:37:46.043Z,3.90
2023-03-08T01:37:57.742Z,3.90
2023-03-08T01:38:09.471Z,3.90
2023-03-08T01:38:21.464Z,3.90
2023-03-08T01:38:33.327Z,3.90
2023-03-08T01:38:45.329Z,3.90
2023-03-08T01:38:57.294Z,3.90
2023-03-08T01:39:09.031Z,3.90
2023-03-08T01:39:20.866Z,3.90
2023-03-08T01:39:32.718Z,4.00
2023-03-08T01:39:44.610Z,3.90
2023-03-08T01:39:56.435Z,3.90
2023-03-08T01:40:08.977Z,4.00
2023-03-08T01:40:20.982Z,3.90
2023-03-08T01:40:33.342Z,3.90
2023-03-08T01:40:45.142Z,4.00
2023-03-08T01:40:58.043Z,4.00
2023-03-08T01:41:22.594Z,4.00
2023-03-08T01:41:34.442Z,3.90
2023-03-08T01:41:46.269Z,4.00
2023-03-08T01:41:58.071Z,4.00
2023-03-08T01:42:09.909Z,4.00
2023-03-08T01:42:21.723Z,4.00
2023-03-08T01:42:33.777Z,4.00
2023-03-08T01:42:45.713Z,4.00
2023-03-08T01:42:57.460Z,4.00
2023-03-08T01:43:41.590Z,4.00
2023-03-08T01:43:53.701Z,4.00
2023-03-08T01:44:07.112Z,4.10
2023-03-08T01:44:19.975Z,4.10
2023-03-08T01:44:52.438Z,4.10
2023-03-08T01:45:05.745Z,4.10
2023-03-08T01:45:55.328Z,4.10
2023-03-08T01:46:32.624Z,4.10
2023-03-08T01:46:44.359Z,4.10
2023-03-08T01:46:56.173Z,4.10
2023-03-08T01:47:13.483Z,4.10
2023-03-08T01:47:28.482Z,4.10
2023-03-08T01:47:40.298Z,4.10
2023-03-08T01:47:52.055Z,4.10
2023-03-08T01:48:03.887Z,4.10
2023-03-08T01:48:15.842Z,4.10
2023-03-08T01:48:31.701Z,4.10
2023-03-08T01:49:01.418Z,4.10
2023-03-08T01:49:33.794Z,4.10
2023-03-08T01:49:45.492Z,4.10
2023-03-08T01:50:08.152Z,4.10
2023-03-08T01:50:20.046Z,4.10
2023-03-08T01:50:31.744Z,4.10
2023-03-08T01:50:44.195Z,4.10
2023-03-08T01:50:55.895Z,4.10
2023-03-08T01:51:08.264Z,4.10
2023-03-08T01:51:29.017Z,4.10
2023-03-08T01:51:52.003Z,4.10
2023-03-08T01:52:12.092Z,4.10
2023-03-08T01:52:27.167Z,4.10
2023-03-08T01:52:41.176Z,4.10
2023-03-08T01:52:52.948Z,4.10
2023-03-08T01:53:04.787Z,4.10
2023-03-08T01:53:16.672Z,4.10
2023-03-08T01:53:28.469Z,4.10
2023-03-08T01:53:40.308Z,4.10
2023-03-08T01:53:52.495Z,4.10
2023-03-08T01:54:10.702Z,4.10
2023-03-08T01:54:46.952Z,4.10
2023-03-08T01:55:00.156Z,4.10
2023-03-08T01:55:12.612Z,4.10
2023-03-08T01:55:24.431Z,4.10
2023-03-08T01:55:36.353Z,4.10
2023-03-08T01:55:48.091Z,4.10
2023-03-08T01:55:59.806Z,4.10
2023-03-08T01:56:13.041Z,4.10
2023-03-08T01:56:24.742Z,4.10
2023-03-08T01:56:36.544Z,4.10
2023-03-08T01:56:49.372Z,4.10
2023-03-08T01:57:03.642Z,4.10
2023-03-08T01:57:20.923Z,4.10
2023-03-08T01:57:43.660Z,4.10
2023-03-08T01:57:55.679Z,4.10
2023-03-08T01:58:07.475Z,4.10
2023-03-08T01:58:19.524Z,4.10
2023-03-08T01:58:31.439Z,4.10
2023-03-08T01:58:43.983Z,4.10
2023-03-08T01:58:56.337Z,4.10
2023-03-08T01:59:08.212Z,4.10
2023-03-08T01:59:20.912Z,4.10
2023-03-08T01:59:33.043Z,4.10
2023-03-08T01:59:45.040Z,4.10
2023-03-08T01:59:58.963Z,4.10
2023-03-08T02:00:15.161Z,4.10
2023-03-08T02:00:27.644Z,4.10
2023-03-08T02:00:39.520Z,4.10
2023-03-08T02:00:51.363Z,4.10
2023-03-08T02:01:03.193Z,4.10
2023-03-08T02:01:15.140Z,4.10
2023-03-08T02:01:27.176Z,4.10
2023-03-08T02:01:39.152Z,4.10
2023-03-08T02:01:51.536Z,4.10
2023-03-08T02:02:03.524Z,4.10
2023-03-08T02:02:16.959Z,4.10
2023-03-08T02:02:31.456Z,4.10
2023-03-08T02:03:06.944Z,4.10
2023-03-08T02:03:18.887Z,4.10
2023-03-08T02:03:30.633Z,4.10
2023-03-08T02:03:42.331Z,4.10
2023-03-08T02:03:54.152Z,4.10
2023-03-08T02:04:06.231Z,4.10
2023-03-08T02:04:18.041Z,4.10
2023-03-08T02:04:29.715Z,4.10
2023-03-08T02:04:41.436Z,4.10
2023-03-08T02:04:53.259Z,4.10
2023-03-08T02:05:05.273Z,4.10
2023-03-08T02:05:17.170Z,4.00
2023-03-08T02:05:29.440Z,4.10
2023-03-08T02:05:42.783Z,4.10
2023-03-08T02:05:54.535Z,4.10
2023-03-08T02:06:06.722Z,4.10
2023-03-08T02:06:18.533Z,4.10
2023-03-08T02:06:30.529Z,4.10
2023-03-08T02:06:42.332Z,4.10
2023-03-08T02:06:54.098Z,4.10
2023-03-08T02:07:05.994Z,4.10
2023-03-08T02:07:17.759Z,4.10
2023-03-08T02:07:29.593Z,4.00
2023-03-08T02:07:41.433Z,4.00
2023-03-08T02:07:53.203Z,4.00
2023-03-08T02:08:04.972Z,4.00
2023-03-08T02:08:16.871Z,4.00
2023-03-08T02:08:28.757Z,4.00
2023-03-08T02:08:40.472Z,4.10
2023-03-08T02:08:52.297Z,4.00
2023-03-08T02:09:05.452Z,4.00
2023-03-08T02:09:17.247Z,4.10
2023-03-08T02:09:29.118Z,4.10
2023-03-08T02:09:41.208Z,4.10
2023-03-08T02:09:53.046Z,4.10
2023-03-08T02:10:05.156Z,4.10
2023-03-08T02:10:17.162Z,4.10
2023-03-08T02:10:29.062Z,4.10
2023-03-08T02:10:41.002Z,4.10
2023-03-08T02:10:52.996Z,4.10
2023-03-08T02:11:04.993Z,4.10
2023-03-08T02:11:16.996Z,4.10
2023-03-08T02:11:28.821Z,4.10
2023-03-08T02:11:40.583Z,4.10
2023-03-08T02:11:52.633Z,4.10
2023-03-08T02:12:04.983Z,4.10
2023-03-08T02:12:16.896Z,4.10
2023-03-08T02:12:28.765Z,4.10
2023-03-08T02:12:40.481Z,4.00
2023-03-08T02:12:52.323Z,4.00
2023-03-08T02:13:04.943Z,4.00
2023-03-08T02:13:16.973Z,4.10
2023-03-08T02:13:28.870Z,4.10
2023-03-08T02:13:40.841Z,4.10
2023-03-08T02:13:53.316Z,4.10
2023-03-08T02:14:05.107Z,4.10
2023-03-08T02:14:17.269Z,4.00
2023-03-08T02:14:29.007Z,4.00
2023-03-08T02:14:46.032Z,4.10
2023-03-08T02:14:57.949Z,4.10
2023-03-08T02:15:11.031Z,4.10
2023-03-08T02:15:22.888Z,4.10
2023-03-08T02:15:34.659Z,4.10
2023-03-08T02:15:46.362Z,4.10
2023-03-08T02:15:58.351Z,4.10
2023-03-08T02:16:11.288Z,4.10
2023-03-08T02:16:23.051Z,4.10
2023-03-08T02:16:34.831Z,4.00
2023-03-08T02:16:46.850Z,4.00
2023-03-08T02:16:58.663Z,4.00
2023-03-08T02:17:10.738Z,4.00
2023-03-08T02:17:22.519Z,4.00
2023-03-08T02:17:40.780Z,4.00
2023-03-08T02:17:52.587Z,4.00
2023-03-08T02:18:04.334Z,4.00
2023-03-08T02:18:16.174Z,4.10
2023-03-08T02:18:27.896Z,4.00
2023-03-08T02:19:00.842Z,4.00
2023-03-08T02:19:17.217Z,4.00
2023-03-08T02:20:00.276Z,4.00
2023-03-08T02:20:12.375Z,4.00
2023-03-08T02:20:28.604Z,4.00
2023-03-08T02:20:40.693Z,4.00
2023-03-08T02:20:52.496Z,4.00
2023-03-08T02:21:04.301Z,4.00
2023-03-08T02:21:16.019Z,4.00
2023-03-08T02:21:28.562Z,4.00
2023-03-08T02:21:40.394Z,4.00
2023-03-08T02:21:52.278Z,4.00
2023-03-08T02:22:11.000Z,4.00
2023-03-08T02:22:22.734Z,4.00
2023-03-08T02:22:41.506Z,4.10
2023-03-08T02:22:53.357Z,4.00
2023-03-08T02:23:15.972Z,4.00
2023-03-08T02:23:27.880Z,4.00
2023-03-08T02:23:39.624Z,4.00
2023-03-08T02:23:51.429Z,4.00
2023-03-08T02:24:06.918Z,4.00
2023-03-08T02:24:19.381Z,4.00
2023-03-08T02:24:31.047Z,4.00
2023-03-08T02:24:43.073Z,4.10
2023-03-08T02:24:54.902Z,4.00
2023-03-08T02:25:16.367Z,4.00
2023-03-08T02:25:28.309Z,4.00
2023-03-08T02:25:40.331Z,4.00
2023-03-08T02:25:55.128Z,4.00
2023-03-08T02:26:06.845Z,4.00
2023-03-08T02:26:18.685Z,4.00
2023-03-08T02:26:30.429Z,4.00
2023-03-08T02:26:42.249Z,4.00
2023-03-08T02:27:04.284Z,4.00
2023-03-08T02:27:18.911Z,4.00
2023-03-08T02:27:30.805Z,4.00
2023-03-08T02:27:42.581Z,4.00
2023-03-08T02:27:54.522Z,4.00
2023-03-08T02:28:06.440Z,4.00
2023-03-08T02:28:19.144Z,4.00
2023-03-08T02:28:31.051Z,4.00
2023-03-08T02:28:42.967Z,4.00
2023-03-08T02:28:54.666Z,4.00
2023-03-08T02:29:06.541Z,4.00
2023-03-08T02:29:18.756Z,4.00
2023-03-08T02:29:30.535Z,4.00
2023-03-08T02:29:42.364Z,4.00
2023-03-08T02:29:54.176Z,4.00
2023-03-08T02:30:06.349Z,4.00
2023-03-08T02:30:26.247Z,4.00
2023-03-08T02:30:38.191Z,4.00
2023-03-08T02:30:50.354Z,4.00
2023-03-08T02:31:02.126Z,4.00
2023-03-08T02:31:14.025Z,4.00
2023-03-08T02:31:25.787Z,4.10
2023-03-08T02:31:37.644Z,4.00
2023-03-08T02:31:49.444Z,4.00
2023-03-08T02:32:01.332Z,4.00
2023-03-08T02:32:13.170Z,4.00
2023-03-08T02:32:25.195Z,4.00
2023-03-08T02:32:37.397Z,4.00
2023-03-08T02:32:49.155Z,4.00
2023-03-08T02:33:00.845Z,4.00
2023-03-08T02:33:12.684Z,4.00
2023-03-08T02:33:24.494Z,4.00
2023-03-08T02:33:36.452Z,4.00
2023-03-08T02:33:48.329Z,4.00
2023-03-08T02:34:00.107Z,4.00
2023-03-08T02:34:11.859Z,4.00
2023-03-08T02:34:23.638Z,4.00
2023-03-08T02:34:35.820Z,4.00
2023-03-08T02:34:47.669Z,4.00
2023-03-08T02:34:59.409Z,4.00
2023-03-08T02:35:11.361Z,4.00
2023-03-08T02:35:23.080Z,4.00
2023-03-08T02:35:35.824Z,4.00
2023-03-08T02:35:47.821Z,4.00
2023-03-08T02:36:02.027Z,4.00
2023-03-08T02:36:13.940Z,4.00
2023-03-08T02:36:25.717Z,4.00
2023-03-08T02:36:37.500Z,4.00
2023-03-08T02:36:49.237Z,4.10
2023-03-08T02:37:01.090Z,4.00
2023-03-08T02:37:12.791Z,4.00
2023-03-08T02:37:24.650Z,4.00
2023-03-08T02:37:36.499Z,4.00
2023-03-08T02:37:48.618Z,4.00
2023-03-08T02:38:00.388Z,4.00
2023-03-08T02:38:12.944Z,4.00
2023-03-08T02:38:24.654Z,4.00
2023-03-08T02:38:36.539Z,4.00
2023-03-08T02:38:51.335Z,4.00
2023-03-08T02:39:03.127Z,4.00
2023-03-08T02:39:14.925Z,4.00
2023-03-08T02:39:26.824Z,4.00
2023-03-08T02:39:38.569Z,4.00
2023-03-08T02:39:50.338Z,4.00
2023-03-08T02:40:02.028Z,4.00
2023-03-08T02:40:13.904Z,4.00
2023-03-08T02:40:25.846Z,4.00
2023-03-08T02:40:38.304Z,4.00
2023-03-08T02:40:53.247Z,4.00
2023-03-08T02:41:05.206Z,4.00
2023-03-08T02:41:17.004Z,4.00
2023-03-08T02:41:28.741Z,4.00
2023-03-08T02:41:40.439Z,4.00
2023-03-08T02:41:52.201Z,4.00
2023-03-08T02:42:04.115Z,4.00
2023-03-08T02:42:15.834Z,4.00
2023-03-08T02:42:27.629Z,4.00
2023-03-08T02:42:39.366Z,4.00
2023-03-08T02:42:53.269Z,4.00
2023-03-08T02:43:05.507Z,4.00
2023-03-08T02:43:18.715Z,4.00
2023-03-08T02:43:30.507Z,4.00
2023-03-08T02:43:42.196Z,4.00
2023-03-08T02:43:54.116Z,4.00
2023-03-08T02:44:05.805Z,4.00
2023-03-08T02:44:17.617Z,4.00
2023-03-08T02:44:29.546Z,4.00
2023-03-08T02:44:41.308Z,4.00
2023-03-08T02:44:53.038Z,4.00
2023-03-08T02:45:05.403Z,4.00
2023-03-08T02:45:17.135Z,4.00
2023-03-08T02:45:28.876Z,4.00
2023-03-08T02:45:40.629Z,4.00
2023-03-08T02:45:52.378Z,4.00
2023-03-08T02:46:04.152Z,4.00
2023-03-08T02:46:15.973Z,4.00
2023-03-08T02:46:27.679Z,4.00
2023-03-08T02:46:39.422Z,4.00
2023-03-08T02:46:51.687Z,4.00
2023-03-08T02:47:03.427Z,4.00
2023-03-08T02:47:15.169Z,3.90
2023-03-08T02:47:26.927Z,4.00
2023-03-08T02:47:38.747Z,4.00
2023-03-08T02:47:50.497Z,3.90
2023-03-08T02:48:03.175Z,3.90
2023-03-08T02:48:15.242Z,3.90
2023-03-08T02:48:27.041Z,3.90
2023-03-08T02:48:38.822Z,3.90
2023-03-08T02:48:52.762Z,3.90
2023-03-08T02:49:04.462Z,3.90
2023-03-08T02:49:16.309Z,3.90